VVTS Airport Information

Runway Information
Runway 07L Length 10000 ft width 148 ft
Elevation 24 ft Threshold 0 ft Heading 69
Runway 25R Length 10000 ft Width 148 ft
Elevation 32 ft Threshold 0 ft Heading 249
Runway 07R Length 12468 ft width 148 ft
Elevation 24 ft Threshold 2431 ft Heading 69
Runway 25L Length 12468 ft Width 148 ft
Elevation 32 ft Threshold 0 ft Heading 249
Airport Frequencies
Type APP Name APP Frequency 125.5 MHZ
Type ATIS Name ATIS Frequency 128 MHZ
Type GND Name GND Frequency 121.9 MHZ
Type TWR Name TWR Frequency 118.7 MHZ
Airport Navaids
Type NDB Name Tansonnhat Frequency 343 KHZ
Type NDB Name Tansonnhat Frequency 375 KHZ
Type NDB Name Tansonnhat Frequency 326 KHZ
Type NDB Name Tansonnhat Frequency 358 KHZ
Type VOR-DME Name Tansonnhat Frequency 116700 KHZ
Airport Weather Information & NOTAM
ADDS - METARS form results

(0146 UTC 28 November 2021)
Data provider http://aviationweather.gov/metar/data/
 
METAR text: VVTS 280130Z VRB03KT 9999 FEW017 SCT050 27/23 Q1011 NOSIG
Conditions at: VVTS (HO CHI MINH/TANS, VN) observed 0130 UTC 28 November 2021
Temperature: 27.0°C (81°F)
Dewpoint: 23.0°C (73°F) [RH = 79%]
Pressure (altimeter): 29.85 inches Hg (1011.0 mb)
Winds: variable direction winds at 3 MPH (3 knots; 1.5 m/s)
Visibility: 6 or more miles (10+ km)
Ceiling: at least 12,000 feet AGL
Clouds: few clouds at 1700 feet AGL
scattered clouds at 5000 feet AGL
Weather: no significant weather observed at this time

METAR text: VVTS 280100Z 35007KT 320V030 9999 FEW017 SCT050 26/23 Q1010 NOSIG
Conditions at: VVTS (HO CHI MINH/TANS, VN) observed 0100 UTC 28 November 2021
Temperature: 26.0°C (79°F)
Dewpoint: 23.0°C (73°F) [RH = 84%]
Pressure (altimeter): 29.82 inches Hg (1010.0 mb)
Winds: from the N (350 degrees) at 8 MPH (7 knots; 3.6 m/s)
Visibility: 6 or more miles (10+ km)
Ceiling: at least 12,000 feet AGL
Clouds: few clouds at 1700 feet AGL
scattered clouds at 5000 feet AGL
Weather: no significant weather observed at this time

Forecast for: VVTS (HO CHI MINH/TANS, VN)
Text: TAF VVTS 272300Z 2800/2906 VRB03KT 9999 SCT015 BKN050
Forecast period: 0000 UTC 28 November 2021 to 0600 UTC 29 November 2021
Forecast type: FROM: standard forecast or significant change
Winds: variable direction winds at 3 MPH (3 knots; 1.5 m/s)
Visibility: 6 or more miles (10+ km)
Ceiling: 5000 feet AGL
Clouds: scattered clouds at 1500 feet AGL
broken clouds at 5000 feet AGL
Weather: no significant weather forecast for this period
Text: TEMPO 2806/2812 04010KT 4000 TSRA SCT015 FEW017CB BKN040
Forecast period: 0600 to 1200 UTC 28 November 2021
Forecast type: TEMPORARY: The following changes expected for less than half the time period
Winds: from the NE (40 degrees) at 12 MPH (10 knots; 5.1 m/s)
Visibility: 2.49 miles (4.01 km)
Ceiling: 4000 feet AGL
Clouds: scattered clouds at 1500 feet AGL
few clouds at 1700 feet AGL
broken clouds at 4000 feet AGL
Weather: TSRA  (rain associated with thunderstorm(s))